Time;durP1;ratioP1;P1;durP2;ratioP2;P2;SDS_P1;SDS_P2;PMS_P1;PMS_P2;Temp;Humidity;BMP_temperature;BMP_pressure;BME280_temperature;BME280_humidity;BME280_pressure;Samples;Min_cycle;Max_cycle;Signal;HPM_P1;HPM_P2
2024/01/13 00:02:19;;;;;;;21.60;12.07;;;3.80;99.90;;;;;;5046584;28;20036;-78
2024/01/13 00:04:45;;;;;;;18.03;10.87;;;3.90;99.90;;;;;;5045229;28;20013;-79
2024/01/13 00:07:11;;;;;;;17.63;11.43;;;3.90;99.90;;;;;;5046095;28;20029;-79
2024/01/13 00:09:36;;;;;;;16.47;10.37;;;3.90;99.90;;;;;;5061753;28;20024;-78
2024/01/13 00:12:02;;;;;;;17.47;11.20;;;3.90;99.90;;;;;;5046159;28;20104;-79
2024/01/13 00:14:28;;;;;;;16.97;11.07;;;3.90;99.90;;;;;;5044321;28;20025;-79
2024/01/13 00:16:54;;;;;;;16.63;10.57;;;3.90;99.90;;;;;;5064304;28;20052;-78
2024/01/13 00:19:19;;;;;;;18.73;11.53;;;3.90;99.90;;;;;;5045174;28;20091;-78
2024/01/13 00:21:45;;;;;;;20.87;12.40;;;3.90;99.90;;;;;;5045155;28;20075;-77
2024/01/13 00:24:11;;;;;;;21.50;12.47;;;3.90;99.90;;;;;;5064410;28;20029;-77
2024/01/13 00:26:36;;;;;;;23.10;13.93;;;3.90;99.90;;;;;;5062502;28;20096;-77
2024/01/13 00:29:02;;;;;;;24.53;14.10;;;3.90;99.90;;;;;;5046199;28;20059;-77
2024/01/13 00:31:28;;;;;;;22.10;14.17;;;4.00;99.90;;;;;;5062078;28;20387;-77
2024/01/13 00:33:53;;;;;;;25.40;14.97;;;3.90;99.90;;;;;;5046120;28;20036;-77
2024/01/13 00:36:19;;;;;;;23.17;13.53;;;3.90;99.90;;;;;;5044555;28;20036;-77
2024/01/13 00:38:45;;;;;;;25.33;13.90;;;4.00;99.90;;;;;;5062912;28;20025;-78
2024/01/13 00:41:10;;;;;;;23.30;14.17;;;3.90;99.90;;;;;;5046264;28;20437;-78
2024/01/13 00:43:36;;;;;;;23.47;14.20;;;3.90;99.90;;;;;;5062104;28;20043;-78
2024/01/13 00:46:03;;;;;;;27.00;15.50;;;3.90;99.90;;;;;;5046242;28;20088;-78
2024/01/13 00:48:30;;;;;;;27.17;14.40;;;3.90;99.90;;;;;;5062000;28;20037;-77
2024/01/13 00:50:56;;;;;;;24.50;14.77;;;4.00;99.90;;;;;;5064203;28;20060;-78
2024/01/13 00:53:21;;;;;;;28.33;15.43;;;4.00;99.90;;;;;;5062859;28;20338;-77
2024/01/13 00:55:47;;;;;;;25.20;14.90;;;4.00;99.90;;;;;;5063070;28;20599;-78
2024/01/13 00:58:12;;;;;;;23.90;14.20;;;4.00;99.90;;;;;;5046008;28;20032;-78
2024/01/13 01:00:38;;;;;;;25.13;15.30;;;4.00;99.90;;;;;;5061783;28;20053;-77
2024/01/13 01:03:04;;;;;;;29.73;15.27;;;4.00;99.90;;;;;;5045820;28;20029;-78
2024/01/13 01:05:30;;;;;;;28.70;16.80;;;4.00;99.90;;;;;;5043583;28;20021;-78
2024/01/13 01:07:55;;;;;;;27.67;16.67;;;4.00;99.90;;;;;;5063592;28;20048;-77
2024/01/13 01:10:21;;;;;;;27.00;16.00;;;4.00;99.90;;;;;;5062117;28;20029;-78
2024/01/13 01:12:46;;;;;;;25.17;15.07;;;4.00;99.90;;;;;;5063306;28;20021;-78
2024/01/13 01:15:12;;;;;;;25.90;16.20;;;4.00;99.90;;;;;;5063339;28;20116;-78
2024/01/13 01:17:38;;;;;;;26.83;15.80;;;4.00;99.90;;;;;;5043684;28;20028;-78
2024/01/13 01:20:05;;;;;;;26.90;15.53;;;4.00;99.90;;;;;;5045233;28;20028;-78
2024/01/13 01:22:30;;;;;;;28.00;16.57;;;4.00;99.90;;;;;;5043223;28;20469;-78
2024/01/13 01:24:56;;;;;;;27.93;15.30;;;4.00;99.90;;;;;;5063611;28;20044;-78
2024/01/13 01:27:21;;;;;;;26.80;16.00;;;4.00;99.90;;;;;;5061539;28;20037;-78
2024/01/13 01:29:47;;;;;;;29.87;16.57;;;4.00;99.90;;;;;;5063167;28;20025;-78
2024/01/13 01:32:13;;;;;;;21.70;13.10;;;4.00;99.90;;;;;;5030771;28;20030;-78
2024/01/13 01:34:38;;;;;;;25.77;14.63;;;4.00;99.90;;;;;;5023639;28;20084;-78
2024/01/13 01:37:04;;;;;;;24.80;14.60;;;4.00;99.90;;;;;;5042670;28;20029;-78
2024/01/13 01:39:30;;;;;;;23.90;13.80;;;4.00;99.90;;;;;;5041190;28;20029;-78
2024/01/13 01:41:55;;;;;;;26.33;15.13;;;4.00;99.90;;;;;;5043294;28;20026;-78
2024/01/13 01:44:21;;;;;;;26.10;15.10;;;4.00;99.90;;;;;;5023457;28;20033;-78
2024/01/13 01:46:48;;;;;;;27.53;14.37;;;4.00;99.90;;;;;;5024928;28;20699;-77
2024/01/13 01:49:16;;;;;;;25.20;14.37;;;4.00;99.90;;;;;;5024584;28;20483;-77
2024/01/13 01:51:42;;;;;;;25.97;14.33;;;4.00;99.90;;;;;;5041588;28;20034;-77
2024/01/13 01:54:09;;;;;;;24.63;14.63;;;4.00;99.90;;;;;;5043186;28;20013;-77
2024/01/13 01:56:35;;;;;;;26.70;14.30;;;4.00;99.90;;;;;;5023165;28;20029;-78
2024/01/13 01:59:02;;;;;;;25.47;14.80;;;4.00;99.90;;;;;;5025540;28;20023;-78
2024/01/13 02:01:30;;;;;;;26.57;14.17;;;4.00;99.90;;;;;;5041031;28;20026;-77
2024/01/13 02:03:57;;;;;;;23.03;13.37;;;4.00;99.90;;;;;;5025006;28;20048;-78
2024/01/13 02:06:23;;;;;;;22.20;12.63;;;4.00;99.90;;;;;;5023984;28;20179;-78
2024/01/13 02:08:49;;;;;;;22.23;12.70;;;4.00;99.90;;;;;;5023819;28;20033;-77
2024/01/13 02:11:15;;;;;;;28.63;13.97;;;4.00;99.90;;;;;;5025173;28;20013;-78
2024/01/13 02:13:46;;;;;;;21.30;11.90;;;4.00;99.90;;;;;;5022960;28;20056;-78
2024/01/13 02:16:12;;;;;;;22.00;12.53;;;4.00;99.90;;;;;;5042530;28;20055;-78
2024/01/13 02:18:38;;;;;;;20.27;11.30;;;4.00;99.90;;;;;;5040715;28;20056;-78
2024/01/13 02:21:04;;;;;;;20.63;10.77;;;4.00;99.90;;;;;;5042556;28;20036;-79
2024/01/13 02:23:30;;;;;;;18.07;9.70;;;4.00;99.90;;;;;;5024218;28;20013;-78
2024/01/13 02:25:56;;;;;;;23.00;11.23;;;4.10;99.90;;;;;;5023735;28;20022;-78
2024/01/13 02:28:21;;;;;;;20.17;11.80;;;4.00;99.90;;;;;;5024855;28;20049;-79
2024/01/13 02:30:47;;;;;;;20.07;11.23;;;3.90;99.90;;;;;;5040603;28;20489;-79
2024/01/13 02:33:13;;;;;;;22.87;10.47;;;3.90;99.90;;;;;;5024468;28;20028;-79
2024/01/13 02:35:38;;;;;;;21.83;11.63;;;3.90;99.90;;;;;;5022480;28;20031;-79
2024/01/13 02:38:04;;;;;;;20.27;11.00;;;3.90;99.90;;;;;;5024974;28;20017;-78
2024/01/13 02:40:30;;;;;;;21.03;11.93;;;4.00;99.90;;;;;;5023420;28;20025;-78
2024/01/13 02:42:55;;;;;;;19.90;11.00;;;4.00;99.90;;;;;;5023619;28;20033;-78
2024/01/13 02:45:21;;;;;;;21.47;11.90;;;4.00;99.90;;;;;;5024795;28;20021;-78
2024/01/13 02:48:01;;;;;;;20.50;10.87;;;4.00;99.90;;;;;;5040294;28;20041;-78
2024/01/13 02:50:26;;;;;;;16.67;9.60;;;4.00;99.90;;;;;;5024506;28;20037;-78
2024/01/13 02:52:52;;;;;;;16.97;9.80;;;3.90;99.90;;;;;;5022417;28;20033;-78
2024/01/13 02:55:17;;;;;;;21.90;12.57;;;3.90;99.90;;;;;;5024680;28;20017;-78
2024/01/13 02:57:43;;;;;;;17.90;9.63;;;3.90;99.90;;;;;;5023982;28;20033;-78
2024/01/13 03:00:09;;;;;;;20.60;10.33;;;3.90;99.90;;;;;;5045220;28;20493;-78
2024/01/13 03:02:35;;;;;;;19.20;10.97;;;3.90;99.90;;;;;;5028606;28;20029;-78
2024/01/13 03:05:01;;;;;;;19.13;10.63;;;4.00;99.90;;;;;;5026093;28;20083;-78
2024/01/13 03:07:27;;;;;;;16.60;10.43;;;3.90;99.90;;;;;;5028115;28;20068;-78
2024/01/13 03:09:53;;;;;;;17.03;10.03;;;3.90;99.90;;;;;;5025978;28;20087;-79
2024/01/13 03:12:18;;;;;;;16.20;9.60;;;3.90;99.90;;;;;;5028273;28;20033;-78
2024/01/13 03:14:45;;;;;;;18.20;10.03;;;3.90;99.90;;;;;;5044432;28;20030;-78
2024/01/13 03:17:11;;;;;;;16.77;9.63;;;4.00;99.90;;;;;;5027133;28;20041;-78
2024/01/13 03:19:37;;;;;;;17.40;9.27;;;3.90;99.90;;;;;;5027735;28;20021;-78
2024/01/13 03:22:02;;;;;;;15.87;9.13;;;4.00;99.90;;;;;;5026246;28;20026;-79
2024/01/13 03:24:28;;;;;;;23.53;10.93;;;4.00;99.90;;;;;;5028099;28;20037;-78
2024/01/13 03:26:54;;;;;;;17.77;10.23;;;4.00;99.90;;;;;;5043596;28;20097;-78
2024/01/13 03:29:19;;;;;;;16.87;9.47;;;4.00;99.90;;;;;;5045463;28;20037;-78
2024/01/13 03:31:45;;;;;;;18.67;9.37;;;4.00;99.90;;;;;;5025951;28;20030;-79
2024/01/13 03:34:10;;;;;;;19.43;10.73;;;4.00;99.90;;;;;;5044950;28;20033;-79
2024/01/13 03:36:36;;;;;;;17.93;8.77;;;4.00;99.90;;;;;;5027585;28;20075;-78
2024/01/13 03:39:03;;;;;;;16.60;9.50;;;4.00;99.90;;;;;;5025669;28;20056;-77
2024/01/13 03:41:29;;;;;;;20.07;10.97;;;4.00;99.90;;;;;;5027732;28;20037;-78
2024/01/13 03:43:57;;;;;;;19.37;10.00;;;4.00;99.90;;;;;;5025542;28;20029;-78
2024/01/13 03:46:23;;;;;;;19.37;10.70;;;4.00;99.90;;;;;;5045523;28;20026;-78
2024/01/13 03:48:48;;;;;;;20.50;11.57;;;4.00;99.90;;;;;;5025465;28;20083;-78
2024/01/13 03:51:16;;;;;;;19.17;11.07;;;4.00;99.90;;;;;;5027130;28;20025;-78
2024/01/13 03:53:42;;;;;;;21.93;12.33;;;4.00;99.90;;;;;;5027052;28;20033;-77
2024/01/13 03:56:08;;;;;;;26.17;12.53;;;4.00;99.90;;;;;;5025733;28;20449;-78
2024/01/13 03:58:35;;;;;;;23.13;13.00;;;4.00;99.90;;;;;;5027290;28;20057;-78
2024/01/13 04:01:02;;;;;;;24.43;13.23;;;4.00;99.90;;;;;;5025206;28;20049;-79
2024/01/13 04:03:27;;;;;;;22.83;13.23;;;4.00;99.90;;;;;;5026924;28;20029;-78
2024/01/13 04:05:53;;;;;;;23.43;12.70;;;4.00;99.90;;;;;;5025180;28;20036;-79
2024/01/13 04:08:19;;;;;;;20.67;11.97;;;4.00;99.90;;;;;;5027081;28;20026;-78
2024/01/13 04:10:45;;;;;;;26.00;14.97;;;4.00;99.90;;;;;;5026261;28;20064;-78
2024/01/13 04:13:12;;;;;;;24.87;13.90;;;4.00;99.90;;;;;;5025437;28;20051;-78
2024/01/13 04:15:38;;;;;;;27.83;15.33;;;4.00;99.90;;;;;;5026950;28;20072;-78
2024/01/13 04:18:04;;;;;;;26.93;14.83;;;4.10;99.90;;;;;;5024531;28;20029;-78
2024/01/13 04:20:29;;;;;;;31.30;16.23;;;4.00;99.90;;;;;;5027058;28;20052;-78
2024/01/13 04:22:55;;;;;;;27.67;16.03;;;4.00;99.90;;;;;;5024780;28;20017;-78
2024/01/13 04:25:21;;;;;;;34.27;18.40;;;4.00;99.90;;;;;;5026724;28;20104;-78
2024/01/13 04:27:48;;;;;;;32.00;18.93;;;4.10;99.90;;;;;;5043723;28;20095;-78
2024/01/13 04:30:14;;;;;;;32.80;19.17;;;4.00;99.90;;;;;;5043492;28;20037;-78
2024/01/13 04:32:40;;;;;;;32.87;19.07;;;4.00;99.90;;;;;;5026323;28;20021;-78
2024/01/13 04:35:06;;;;;;;29.50;18.70;;;4.00;99.90;;;;;;5024584;28;20085;-78
2024/01/13 04:37:32;;;;;;;42.97;22.07;;;4.00;99.90;;;;;;5044415;28;20109;-78
2024/01/13 04:39:58;;;;;;;34.40;21.60;;;4.00;99.90;;;;;;5024268;28;20366;-78
2024/01/13 04:42:23;;;;;;;31.40;19.20;;;3.90;99.90;;;;;;5026581;28;20025;-77
2024/01/13 04:44:49;;;;;;;34.43;20.13;;;3.90;99.90;;;;;;5025333;28;20048;-77
2024/01/13 04:47:15;;;;;;;35.13;20.90;;;3.90;99.90;;;;;;5043129;28;20037;-77
2024/01/13 04:49:40;;;;;;;31.07;19.13;;;3.90;99.90;;;;;;5026450;28;20030;-78
2024/01/13 04:52:06;;;;;;;35.47;20.10;;;4.00;99.90;;;;;;5024056;28;20040;-78
2024/01/13 04:54:31;;;;;;;31.43;19.00;;;4.00;99.90;;;;;;5026358;28;20018;-79
2024/01/13 04:56:57;;;;;;;32.13;19.43;;;4.00;99.90;;;;;;5024112;28;20022;-78
2024/01/13 04:59:23;;;;;;;37.43;21.47;;;3.90;99.90;;;;;;5026377;28;20014;-78
2024/01/13 05:01:49;;;;;;;32.33;19.93;;;3.90;99.90;;;;;;5025548;28;20018;-78
2024/01/13 05:04:14;;;;;;;30.53;18.17;;;4.00;99.90;;;;;;5045461;28;20037;-78
2024/01/13 05:06:40;;;;;;;29.63;17.77;;;4.10;99.90;;;;;;5045561;28;20013;-79
2024/01/13 05:09:06;;;;;;;30.30;17.67;;;3.90;99.90;;;;;;5043561;28;20037;-78
2024/01/13 05:11:31;;;;;;;26.40;15.90;;;4.00;99.90;;;;;;5063552;28;20233;-78
2024/01/13 05:13:57;;;;;;;31.40;19.17;;;4.00;99.90;;;;;;5043114;28;20025;-77
2024/01/13 05:16:23;;;;;;;28.00;17.30;;;4.00;99.90;;;;;;5045698;28;20053;-78
2024/01/13 05:18:48;;;;;;;29.53;17.90;;;4.00;99.90;;;;;;5061901;28;20107;-78
2024/01/13 05:21:14;;;;;;;30.13;18.80;;;4.00;99.90;;;;;;5044969;28;20024;-78
2024/01/13 05:23:39;;;;;;;29.53;18.63;;;4.00;99.90;;;;;;5063255;28;20024;-78
2024/01/13 05:26:05;;;;;;;27.67;16.70;;;4.00;99.90;;;;;;5043582;28;20025;-78
2024/01/13 05:28:31;;;;;;;27.27;17.83;;;4.00;99.90;;;;;;5063260;28;20045;-77
2024/01/13 05:30:56;;;;;;;26.27;16.83;;;4.00;99.90;;;;;;5043291;28;20088;-78
2024/01/13 05:33:22;;;;;;;30.27;18.33;;;4.00;99.90;;;;;;5063365;28;20025;-77
2024/01/13 05:35:48;;;;;;;29.90;18.50;;;4.10;99.90;;;;;;5043238;28;20032;-77
2024/01/13 05:38:13;;;;;;;29.37;18.33;;;4.00;99.90;;;;;;5045422;28;20028;-77
2024/01/13 05:40:44;;;;;;;32.20;18.47;;;4.10;99.90;;;;;;5044104;28;20028;-78
2024/01/13 05:43:10;;;;;;;27.60;18.33;;;4.10;99.90;;;;;;5061941;28;20025;-78
2024/01/13 05:45:35;;;;;;;28.23;17.73;;;4.10;99.90;;;;;;5045273;28;20049;-78
2024/01/13 05:48:01;;;;;;;30.83;19.40;;;4.10;99.90;;;;;;5043190;28;20029;-78
2024/01/13 05:50:27;;;;;;;24.87;15.50;;;4.10;99.90;;;;;;5063293;28;20422;-78
2024/01/13 05:52:53;;;;;;;28.23;18.30;;;4.10;99.90;;;;;;5060849;28;20104;-77
2024/01/13 05:55:18;;;;;;;29.57;18.60;;;4.10;99.90;;;;;;5044899;28;20044;-77
2024/01/13 05:57:44;;;;;;;25.60;16.70;;;4.10;99.90;;;;;;5044072;28;20477;-78
2024/01/13 06:00:10;;;;;;;26.60;17.17;;;4.10;99.90;;;;;;5061947;28;20051;-78
2024/01/13 06:02:36;;;;;;;26.10;16.53;;;4.10;99.90;;;;;;5044808;28;20025;-78
2024/01/13 06:05:02;;;;;;;24.50;16.13;;;4.10;99.90;;;;;;5042500;28;20021;-78
2024/01/13 06:07:27;;;;;;;22.37;15.20;;;4.10;99.90;;;;;;5045126;28;20035;-78
2024/01/13 06:09:53;;;;;;;23.70;15.20;;;4.30;99.90;;;;;;5042616;28;20031;-78
2024/01/13 06:12:20;;;;;;;26.83;16.40;;;4.10;99.90;;;;;;5044635;28;20021;-78
2024/01/13 06:14:46;;;;;;;27.97;16.37;;;4.10;99.90;;;;;;5043577;28;20024;-78
2024/01/13 06:17:12;;;;;;;23.80;14.90;;;4.20;99.90;;;;;;5043733;28;20068;-78
2024/01/13 06:19:38;;;;;;;27.60;15.20;;;4.10;99.90;;;;;;5044808;28;20380;-78
2024/01/13 06:22:04;;;;;;;26.30;16.67;;;4.20;99.90;;;;;;5042455;28;20112;-78
2024/01/13 06:24:29;;;;;;;24.27;15.73;;;4.10;99.90;;;;;;5062734;28;20017;-77
2024/01/13 06:26:55;;;;;;;26.07;16.33;;;4.10;99.90;;;;;;5060486;28;20493;-78
2024/01/13 06:29:21;;;;;;;26.50;15.87;;;4.10;99.90;;;;;;5044864;28;20086;-78
2024/01/13 06:31:46;;;;;;;22.40;14.10;;;4.10;99.90;;;;;;5043286;28;20404;-77
2024/01/13 06:34:12;;;;;;;22.43;13.83;;;4.10;99.90;;;;;;5048297;28;20029;-77
2024/01/13 06:36:38;;;;;;;24.97;14.83;;;4.10;99.90;;;;;;5048293;28;20025;-78
2024/01/13 06:39:04;;;;;;;23.47;14.90;;;4.10;99.90;;;;;;5064757;28;20017;-78
2024/01/13 06:41:31;;;;;;;23.73;13.83;;;4.10;99.90;;;;;;5066640;28;20025;-78
2024/01/13 06:43:56;;;;;;;25.20;14.40;;;4.10;99.90;;;;;;5046388;28;20028;-78
2024/01/13 06:46:22;;;;;;;25.30;14.07;;;4.10;99.90;;;;;;5048689;28;20029;-78
2024/01/13 06:48:48;;;;;;;20.37;12.10;;;4.10;99.90;;;;;;5046444;28;20087;-78
2024/01/13 06:51:14;;;;;;;20.93;12.47;;;4.10;99.90;;;;;;5048118;28;20024;-78
2024/01/13 06:53:40;;;;;;;22.27;12.83;;;4.10;99.90;;;;;;5047782;28;20067;-78
2024/01/13 06:56:05;;;;;;;23.87;13.97;;;4.20;99.90;;;;;;5046807;28;20474;-78
2024/01/13 06:58:31;;;;;;;24.50;12.80;;;4.10;99.90;;;;;;5048059;28;20108;-79
2024/01/13 07:00:58;;;;;;;21.63;11.33;;;4.10;99.90;;;;;;5046075;28;20017;-78
2024/01/13 07:03:24;;;;;;;24.83;13.30;;;4.30;99.90;;;;;;5048453;28;20031;-79
2024/01/13 07:05:49;;;;;;;23.60;12.77;;;4.20;99.90;;;;;;5045944;28;20119;-78
2024/01/13 07:08:15;;;;;;;24.57;12.53;;;4.10;99.90;;;;;;5047995;28;20053;-78
2024/01/13 07:10:40;;;;;;;31.23;14.27;;;4.10;99.90;;;;;;5046957;28;20021;-78
2024/01/13 07:13:06;;;;;;;23.63;12.37;;;4.10;99.90;;;;;;5046626;28;20025;-79
2024/01/13 07:15:32;;;;;;;24.77;12.73;;;4.10;99.90;;;;;;5047922;28;20041;-78
2024/01/13 07:18:00;;;;;;;23.10;12.10;;;4.20;99.90;;;;;;5045860;28;20575;-78
2024/01/13 07:20:26;;;;;;;29.03;15.23;;;4.10;99.90;;;;;;5066027;28;20025;-77
2024/01/13 07:22:53;;;;;;;25.27;13.13;;;4.20;99.90;;;;;;5045477;28;20052;-78
2024/01/13 07:25:19;;;;;;;26.83;14.07;;;4.20;99.90;;;;;;5047540;28;20476;-79
2024/01/13 07:27:44;;;;;;;25.87;12.80;;;4.20;99.90;;;;;;5046730;28;20047;-79
2024/01/13 07:30:11;;;;;;;33.33;16.10;;;4.20;99.90;;;;;;5046527;28;20044;-80
2024/01/13 07:32:36;;;;;;;30.63;15.50;;;4.20;99.90;;;;;;5047385;28;20032;-79
2024/01/13 07:35:02;;;;;;;33.30;14.93;;;4.20;99.90;;;;;;5045409;28;20025;-79
2024/01/13 07:37:28;;;;;;;29.27;13.93;;;4.10;99.90;;;;;;5065361;28;20048;-79
2024/01/13 07:39:54;;;;;;;30.27;14.67;;;4.20;99.90;;;;;;5063193;28;20025;-78
2024/01/13 07:42:19;;;;;;;29.37;15.10;;;4.20;99.90;;;;;;5047410;28;20119;-80
2024/01/13 07:44:45;;;;;;;35.03;16.17;;;4.20;99.90;;;;;;5045454;28;20059;-78
2024/01/13 07:47:11;;;;;;;37.00;17.77;;;4.20;99.90;;;;;;5046774;28;20386;-78
2024/01/13 07:49:37;;;;;;;35.63;18.07;;;4.20;99.90;;;;;;5047042;28;20021;-78
2024/01/13 07:52:03;;;;;;;35.10;17.00;;;4.10;99.90;;;;;;5045012;28;20381;-79
2024/01/13 07:54:28;;;;;;;32.97;16.40;;;4.20;99.90;;;;;;5047303;28;20120;-79
2024/01/13 07:56:54;;;;;;;36.13;18.60;;;4.10;99.90;;;;;;5045250;28;20036;-79
2024/01/13 07:59:21;;;;;;;37.50;19.27;;;4.20;99.90;;;;;;5047275;28;20105;-79
2024/01/13 08:01:47;;;;;;;37.07;19.13;;;4.10;99.90;;;;;;5045274;28;20440;-79
2024/01/13 08:04:14;;;;;;;37.53;18.63;;;4.10;99.90;;;;;;5046565;28;20029;-79
2024/01/13 08:06:40;;;;;;;35.73;18.43;;;4.20;99.90;;;;;;5064983;28;20075;-78
2024/01/13 08:09:06;;;;;;;34.90;18.73;;;4.20;99.90;;;;;;5062685;28;20029;-79
2024/01/13 08:11:32;;;;;;;33.90;17.20;;;4.20;99.90;;;;;;5065037;28;20435;-79
2024/01/13 08:13:58;;;;;;;35.10;18.70;;;4.20;99.90;;;;;;5044498;28;20389;-78
2024/01/13 08:16:24;;;;;;;43.93;20.50;;;4.20;99.90;;;;;;5046805;28;20072;-78
2024/01/13 08:18:49;;;;;;;39.37;20.27;;;4.20;99.90;;;;;;5044637;28;20027;-78
2024/01/13 08:21:15;;;;;;;37.90;19.77;;;4.30;99.90;;;;;;5046302;28;20033;-79
2024/01/13 08:23:41;;;;;;;36.90;19.63;;;4.20;99.90;;;;;;5045985;28;20042;-77
2024/01/13 08:26:07;;;;;;;35.80;18.70;;;4.20;99.90;;;;;;5045011;28;20021;-79
2024/01/13 08:28:33;;;;;;;39.97;20.20;;;4.30;99.90;;;;;;5054528;28;20049;-77
2024/01/13 08:30:59;;;;;;;33.80;19.23;;;4.20;99.90;;;;;;5024359;28;20109;-77
2024/01/13 08:33:25;;;;;;;38.83;21.27;;;4.20;99.90;;;;;;5044255;28;20013;-77
2024/01/13 08:35:50;;;;;;;41.33;22.30;;;4.20;99.90;;;;;;5024488;28;20033;-77
2024/01/13 08:38:16;;;;;;;40.80;22.47;;;4.20;99.90;;;;;;5044240;28;20047;-78
2024/01/13 08:40:46;;;;;;;36.80;20.13;;;4.20;99.90;;;;;;5034283;28;20032;-78
2024/01/13 08:43:12;;;;;;;41.87;22.07;;;4.20;99.90;;;;;;5043116;28;20126;-78
2024/01/13 08:45:38;;;;;;;40.97;21.60;;;4.20;99.90;;;;;;5045903;28;20608;-78
2024/01/13 08:48:04;;;;;;;37.97;20.57;;;4.20;99.90;;;;;;5044175;28;20029;-78
2024/01/13 08:50:32;;;;;;;39.43;21.17;;;4.20;99.90;;;;;;5046459;28;20036;-78
2024/01/13 08:52:57;;;;;;;38.80;22.17;;;4.30;99.90;;;;;;5043596;28;20200;-77
2024/01/13 08:55:24;;;;;;;40.53;22.00;;;4.30;99.90;;;;;;5045481;28;20033;-78
2024/01/13 08:57:49;;;;;;;37.50;19.60;;;4.30;99.90;;;;;;5045150;28;20025;-77
2024/01/13 09:00:15;;;;;;;37.67;21.63;;;4.30;99.90;;;;;;5044738;28;20029;-78
2024/01/13 09:02:43;;;;;;;41.27;22.43;;;4.30;99.90;;;;;;5063324;28;20035;-78
2024/01/13 09:05:09;;;;;;;42.60;23.67;;;4.20;99.90;;;;;;5043055;28;20551;-78
2024/01/13 09:07:37;;;;;;;35.80;20.97;;;4.30;99.90;;;;;;5062765;28;20511;-78
2024/01/13 09:10:03;;;;;;;33.97;20.13;;;4.30;99.90;;;;;;5060744;28;20060;-77
2024/01/13 09:12:29;;;;;;;38.97;19.83;;;4.30;99.90;;;;;;5063424;28;20025;-78
2024/01/13 09:14:55;;;;;;;32.67;19.07;;;4.30;99.90;;;;;;5060980;28;20086;-77
2024/01/13 09:17:32;;;;;;;31.93;18.47;;;4.30;99.90;;;;;;5085488;27;1294072;-77
2024/01/13 09:19:57;;;;;;;31.97;18.67;;;4.30;99.90;;;;;;5090842;28;20488;-77
2024/01/13 09:22:23;;;;;;;32.77;19.03;;;4.30;99.90;;;;;;5103421;28;20047;-78
2024/01/13 09:24:49;;;;;;;34.43;18.73;;;4.40;99.90;;;;;;5083091;28;20031;-78
2024/01/13 09:27:16;;;;;;;29.37;17.83;;;4.30;99.90;;;;;;5099696;28;20082;-77
2024/01/13 09:29:44;;;;;;;28.83;16.57;;;4.40;99.90;;;;;;5083037;28;20094;-77
2024/01/13 09:32:09;;;;;;;30.03;18.10;;;4.30;99.90;;;;;;5075215;28;20044;-77
2024/01/13 09:34:35;;;;;;;38.37;21.90;;;4.40;99.90;;;;;;5081294;28;20036;-77
2024/01/13 09:37:01;;;;;;;33.83;20.63;;;4.40;99.90;;;;;;5102935;28;20040;-78
2024/01/13 09:39:26;;;;;;;34.63;20.77;;;4.50;99.90;;;;;;5109428;28;20038;-78
2024/01/13 09:41:54;;;;;;;34.87;20.53;;;4.40;99.90;;;;;;5067289;28;20025;-78
2024/01/13 09:44:26;;;;;;;32.23;20.00;;;4.40;99.90;;;;;;5087078;28;20388;-77
2024/01/13 09:46:53;;;;;;;30.73;20.03;;;4.40;99.90;;;;;;5078599;28;20052;-77
2024/01/13 09:49:20;;;;;;;31.73;17.30;;;4.40;99.90;;;;;;5095732;28;20023;-80
2024/01/13 09:51:47;;;;;;;29.83;17.20;;;4.50;99.90;;;;;;5102499;28;20026;-78
2024/01/13 09:54:17;;;;;;;28.03;15.87;;;4.50;99.90;;;;;;5102266;28;20024;-78
2024/01/13 09:56:47;;;;;;;29.40;16.00;;;4.50;99.90;;;;;;5101477;28;20043;-78
2024/01/13 09:59:13;;;;;;;29.03;15.70;;;4.50;99.90;;;;;;5102684;28;20024;-78
2024/01/13 10:01:39;;;;;;;24.73;14.80;;;4.40;99.90;;;;;;5101049;28;20034;-77
2024/01/13 10:04:06;;;;;;;26.37;15.10;;;4.50;99.90;;;;;;5102517;28;20016;-78
2024/01/13 10:06:33;;;;;;;24.80;14.87;;;4.40;99.90;;;;;;5101065;28;20102;-78
2024/01/13 10:08:59;;;;;;;25.83;15.47;;;4.50;99.90;;;;;;5102663;28;20024;-78
2024/01/13 10:11:25;;;;;;;25.53;15.30;;;4.50;99.90;;;;;;5102141;28;20012;-78
2024/01/13 10:14:12;;;;;;;24.47;14.47;;;4.50;99.90;;;;;;5119632;28;20027;-77
2024/01/13 10:16:38;;;;;;;27.53;15.17;;;4.40;99.90;;;;;;5102448;28;20082;-78
2024/01/13 10:19:06;;;;;;;25.27;14.87;;;4.50;99.90;;;;;;5100365;28;20032;-77
2024/01/13 10:21:33;;;;;;;24.10;13.53;;;4.40;99.90;;;;;;5095102;28;20103;-78
2024/01/13 10:24:00;;;;;;;26.57;15.70;;;4.50;99.90;;;;;;5080695;28;20032;-78
2024/01/13 10:26:28;;;;;;;29.10;16.63;;;4.50;99.90;;;;;;5109755;28;20048;-78
2024/01/13 10:28:55;;;;;;;29.93;16.87;;;4.50;99.90;;;;;;5076711;28;20016;-77
2024/01/13 10:31:21;;;;;;;30.47;16.07;;;4.50;99.90;;;;;;5076419;28;20020;-77
2024/01/13 10:33:48;;;;;;;27.77;16.10;;;4.50;99.90;;;;;;5096482;28;20388;-78
2024/01/13 10:36:15;;;;;;;29.37;16.60;;;4.50;99.90;;;;;;5074935;28;20059;-78
2024/01/13 10:38:42;;;;;;;28.97;16.13;;;4.50;99.90;;;;;;5077598;28;20074;-78
2024/01/13 10:41:09;;;;;;;25.17;15.47;;;4.50;99.90;;;;;;5080499;28;20017;-78
2024/01/13 10:43:40;;;;;;;29.20;16.43;;;4.50;99.90;;;;;;5106146;28;20028;-77
2024/01/13 10:46:14;;;;;;;32.97;18.73;;;4.60;99.90;;;;;;5088620;28;20040;-77
2024/01/13 10:48:48;;;;;;;31.77;17.93;;;4.50;99.90;;;;;;5086471;28;20021;-77
2024/01/13 10:51:42;;;;;;;29.80;17.00;;;4.50;99.90;;;;;;5106485;28;20100;-76
2024/01/13 10:54:08;;;;;;;23.88;11.77;;;4.50;99.90;;;;;;5087777;28;20020;-76
2024/01/13 10:56:38;;;;;;;28.90;16.00;;;4.50;99.90;;;;;;5105438;28;20040;-76
2024/01/13 10:59:04;;;;;;;26.77;15.73;;;4.50;99.90;;;;;;5088316;28;20013;-79
2024/01/13 11:01:34;;;;;;;27.97;16.30;;;4.50;99.90;;;;;;5086445;28;20024;-82
2024/01/13 11:04:04;;;;;;;28.27;16.40;;;4.50;99.90;;;;;;5087897;28;20035;-79
2024/01/13 11:06:30;;;;;;;30.83;17.03;;;4.50;99.90;;;;;;5086565;28;20046;-91
2024/01/13 11:08:57;;;;;;;26.73;16.10;;;4.50;99.90;;;;;;5088798;28;20020;-86
2024/01/13 11:11:38;;;;;;;27.03;16.30;;;4.50;99.90;;;;;;5086694;28;20024;-84
2024/01/13 11:14:14;;;;;;;28.20;15.97;;;4.50;99.90;;;;;;5076675;28;20028;-84
2024/01/13 11:16:44;;;;;;;30.43;16.43;;;4.50;99.90;;;;;;5078473;28;20052;-85
2024/01/13 11:19:11;;;;;;;29.10;16.40;;;4.50;99.90;;;;;;5061452;28;20039;-84
2024/01/13 11:21:37;;;;;;;25.30;15.27;;;4.50;99.90;;;;;;5078099;28;20020;-84
2024/01/13 11:24:12;;;;;;;26.23;16.20;;;4.50;99.90;;;;;;5074801;28;20027;-84
2024/01/13 11:26:47;;;;;;;29.57;16.43;;;4.50;99.90;;;;;;5075183;28;20036;-84
2024/01/13 11:29:31;;;;;;;27.20;15.43;;;4.50;99.90;;;;;;5076398;28;20027;-83
2024/01/13 11:32:01;;;;;;;25.27;15.50;;;4.50;99.90;;;;;;5045906;28;20089;-83
2024/01/13 11:34:29;;;;;;;27.27;15.40;;;4.50;99.90;;;;;;5077451;28;20407;-84
2024/01/13 11:36:59;;;;;;;25.23;14.67;;;4.50;99.90;;;;;;5076313;28;20051;-84
2024/01/13 11:39:25;;;;;;;24.67;14.47;;;4.50;99.90;;;;;;5072263;28;20034;-85
2024/01/13 11:41:55;;;;;;;28.40;15.20;;;4.50;99.90;;;;;;5076666;28;20016;-84
2024/01/13 11:44:34;;;;;;;34.03;18.37;;;4.50;99.90;;;;;;5075885;28;20027;-84
2024/01/13 11:47:02;;;;;;;31.67;18.00;;;4.50;99.90;;;;;;5077546;28;20042;-84
2024/01/13 11:49:37;;;;;;;30.00;16.47;;;4.50;99.90;;;;;;5074600;28;20033;-84
2024/01/13 11:52:28;;;;;;;30.97;17.03;;;4.50;99.90;;;;;;5073267;28;20017;-84
2024/01/13 11:54:55;;;;;;;34.73;17.93;;;4.50;99.90;;;;;;5071141;28;20052;-84
2024/01/13 11:57:20;;;;;;;33.90;19.40;;;4.50;99.90;;;;;;5064953;28;20118;-85
2024/01/13 11:59:46;;;;;;;34.70;19.30;;;4.40;99.90;;;;;;5066702;28;20065;-84
2024/01/13 12:02:12;;;;;;;35.40;20.17;;;4.50;99.90;;;;;;5067268;28;20020;-85
2024/01/13 12:04:41;;;;;;;37.70;19.77;;;4.50;99.90;;;;;;5088341;28;20035;-84
2024/01/13 12:07:11;;;;;;;36.20;21.07;;;4.50;99.90;;;;;;5088574;28;20096;-84
2024/01/13 12:09:37;;;;;;;34.07;20.57;;;4.60;99.90;;;;;;5087528;28;20488;-85
2024/01/13 12:12:05;;;;;;;35.73;19.17;;;4.50;99.90;;;;;;5087351;28;20426;-85
2024/01/13 12:14:37;;;;;;;34.90;19.40;;;4.60;99.90;;;;;;5084616;28;20023;-86
2024/01/13 12:17:04;;;;;;;40.30;22.63;;;4.60;99.90;;;;;;5087018;28;20048;-85
2024/01/13 12:19:39;;;;;;;40.90;21.70;;;4.60;99.90;;;;;;5084798;28;20036;-86
2024/01/13 12:22:05;;;;;;;35.50;20.30;;;4.70;99.90;;;;;;5087894;28;20122;-85
2024/01/13 12:24:33;;;;;;;37.77;21.03;;;4.70;99.90;;;;;;5086551;28;20115;-85
2024/01/13 12:26:59;;;;;;;41.50;23.57;;;4.70;99.90;;;;;;5084601;28;20020;-85
2024/01/13 12:29:29;;;;;;;41.93;23.67;;;4.70;99.90;;;;;;5086472;28;20058;-86
2024/01/13 12:31:58;;;;;;;42.23;22.57;;;4.70;99.90;;;;;;5084278;28;20016;-85
2024/01/13 12:34:24;;;;;;;41.83;24.47;;;4.70;99.90;;;;;;5086080;28;20033;-86
2024/01/13 12:36:51;;;;;;;44.40;25.23;;;4.70;99.90;;;;;;5084700;28;20103;-85